Time;durP1;ratioP1;P1;durP2;ratioP2;P2;SDS_P1;SDS_P2;PMS_P1;PMS_P2;Temp;Humidity;BMP_temperature;BMP_pressure;BME280_temperature;BME280_humidity;BME280_pressure;Samples;Min_cycle;Max_cycle;Signal;HPM_P1;HPM_P2
2022/04/10 00:01:46;;;;;;;15.57;3.58;;;;;;;;;;4937495;28;20428;-66
2022/04/10 00:04:12;;;;;;;16.40;3.30;;;;;;;;;;4935475;29;20427;-62
2022/04/10 00:06:38;;;;;;;15.47;3.70;;;;;;;;;;4937109;28;20427;-64
2022/04/10 00:09:04;;;;;;;16.20;4.03;;;;;;;;;;4936374;29;20430;-64
2022/04/10 00:11:30;;;;;;;15.40;3.60;;;;;;;;;;4937862;28;20424;-64
2022/04/10 00:13:56;;;;;;;15.90;3.70;;;;;;;;;;4936886;29;20431;-65
2022/04/10 00:16:22;;;;;;;18.50;3.28;;;;;;;;;;4938841;28;20434;-64
2022/04/10 00:18:49;;;;;;;17.17;3.83;;;;;;;;;;4938654;29;20438;-64
2022/04/10 00:21:15;;;;;;;18.97;3.93;;;;;;;;;;4937903;28;20435;-64
2022/04/10 00:23:41;;;;;;;13.25;3.67;;;;;;;;;;4939584;28;20927;-64
2022/04/10 00:26:07;;;;;;;17.87;3.50;;;;;;;;;;4937686;28;20470;-64
2022/04/10 00:28:33;;;;;;;16.65;3.72;;;;;;;;;;4939280;29;20419;-64
2022/04/10 00:31:00;;;;;;;14.18;3.42;;;;;;;;;;4934722;28;21002;-63
2022/04/10 00:33:26;;;;;;;18.73;4.18;;;;;;;;;;4939158;29;20550;-63
2022/04/10 00:35:52;;;;;;;21.35;4.13;;;;;;;;;;4937086;28;20428;-64
2022/04/10 00:38:20;;;;;;;17.88;3.47;;;;;;;;;;4937575;28;20443;-64
2022/04/10 00:40:46;;;;;;;13.68;3.45;;;;;;;;;;4937497;29;20432;-64
2022/04/10 00:43:12;;;;;;;16.23;3.50;;;;;;;;;;4938083;28;20424;-64
2022/04/10 00:45:38;;;;;;;15.98;4.00;;;;;;;;;;4936549;29;20427;-64
2022/04/10 00:48:04;;;;;;;13.00;3.40;;;;;;;;;;4935924;28;20420;-64
2022/04/10 00:50:32;;;;;;;15.95;3.70;;;;;;;;;;4937823;29;20426;-64
2022/04/10 00:52:59;;;;;;;25.25;3.95;;;;;;;;;;4933493;28;20499;-65
2022/04/10 00:55:25;;;;;;;16.35;3.60;;;;;;;;;;4935665;29;20452;-65
2022/04/10 00:57:51;;;;;;;12.05;3.60;;;;;;;;;;4937181;29;20919;-65
2022/04/10 01:00:17;;;;;;;21.33;3.70;;;;;;;;;;4936497;28;20428;-65
2022/04/10 01:02:44;;;;;;;19.13;3.97;;;;;;;;;;4937689;28;20484;-64
2022/04/10 01:05:10;;;;;;;18.87;3.50;;;;;;;;;;4935669;28;20476;-65
2022/04/10 01:07:36;;;;;;;14.45;3.78;;;;;;;;;;4934602;29;20824;-64
2022/04/10 01:10:04;;;;;;;16.17;3.55;;;;;;;;;;4931815;28;20435;-64
2022/04/10 01:12:31;;;;;;;14.25;3.50;;;;;;;;;;4937680;29;20431;-64
2022/04/10 01:14:57;;;;;;;18.55;3.88;;;;;;;;;;4935435;29;20484;-64
2022/04/10 01:17:23;;;;;;;16.38;3.63;;;;;;;;;;4939449;28;20431;-64
2022/04/10 01:19:50;;;;;;;18.13;3.50;;;;;;;;;;4938555;29;20480;-65
2022/04/10 01:22:35;;;;;;;17.00;3.40;;;;;;;;;;4937684;28;20423;-64
2022/04/10 01:25:05;;;;;;;15.20;3.95;;;;;;;;;;4933955;28;20444;-64
2022/04/10 01:27:41;;;;;;;19.00;4.05;;;;;;;;;;4925981;28;20440;-64
2022/04/10 01:30:11;;;;;;;17.95;3.78;;;2.90;99.90;;;;;;4946041;28;20831;-64
2022/04/10 01:32:37;;;;;;;18.15;3.72;;;;;;;;;;4950466;28;20437;-64
2022/04/10 01:35:04;;;;;;;17.73;3.70;;;;;;;;;;4942834;28;20522;-64
2022/04/10 01:37:31;;;;;;;14.63;3.78;;;;;;;;;;4939530;29;20784;-64
2022/04/10 01:39:57;;;;;;;15.85;3.50;;;;;;;;;;4933648;28;20443;-65
2022/04/10 01:42:23;;;;;;;16.70;3.67;;;;;;;;;;4935717;28;20474;-65
2022/04/10 01:44:49;;;;;;;15.85;3.30;;;;;;;;;;4937254;28;20427;-64
2022/04/10 01:47:15;;;;;;;19.48;3.92;;;;;;;;;;4941482;29;20430;-64
2022/04/10 01:49:41;;;;;;;14.68;3.15;;;;;;;;;;4936006;28;20911;-64
2022/04/10 01:52:08;;;;;;;16.88;3.40;;;;;;;;;;4936254;28;20416;-64
2022/04/10 01:54:34;;;;;;;14.33;3.37;;;;;;;;;;4935095;28;20569;-64
2022/04/10 01:57:00;;;;;;;11.85;3.38;;;;;;;;;;4935156;28;20436;-64
2022/04/10 01:59:29;;;;;;;14.13;3.70;;;;;;;;;;4939386;28;20459;-63
2022/04/10 02:01:55;;;;;;;14.93;3.70;;;;;;;;;;4932681;29;20436;-64
2022/04/10 02:04:22;;;;;;;16.17;3.60;;;;;;;;;;4935067;28;20443;-63
2022/04/10 02:06:48;;;;;;;13.82;3.50;;;;;;;;;;4930657;28;20438;-64
2022/04/10 02:09:14;;;;;;;13.15;3.53;;;;;;;;;;4934485;28;20435;-64
2022/04/10 02:11:40;;;;;;;15.23;3.22;;;;;;;;;;4934916;29;20460;-64
2022/04/10 02:14:06;;;;;;;15.27;3.25;;;;;;;;;;4933539;28;20451;-64
2022/04/10 02:16:32;;;;;;;16.15;3.33;;;;;;;;;;4934830;28;20513;-64
2022/04/10 02:18:58;;;;;;;17.73;3.47;;;;;;;;;;4936070;28;20443;-65
2022/04/10 02:21:24;;;;;;;15.43;3.30;;;;;;;;;;4927668;28;20451;-65
2022/04/10 02:23:50;;;;;;;13.95;3.42;;;;;;;;;;4933688;28;20420;-66
2022/04/10 02:26:16;;;;;;;17.73;3.60;;;;;;;;;;4935020;28;20440;-64
2022/04/10 02:28:43;;;;;;;17.17;3.53;;;;;;;;;;4935180;28;20502;-65
2022/04/10 02:31:09;;;;;;;13.50;3.05;;;;;;;;;;4934654;28;20565;-64
2022/04/10 02:33:37;;;;;;;13.25;3.33;;;;;;;;;;4933444;28;20431;-63
2022/04/10 02:36:03;;;;;;;10.20;3.10;;;;;;;;;;4921148;28;20423;-64
2022/04/10 02:38:29;;;;;;;15.80;3.00;;;;;;;;;;4936065;28;20820;-64
2022/04/10 02:40:55;;;;;;;11.40;2.53;;;;;;;;;;4931531;28;20428;-64
2022/04/10 02:43:21;;;;;;;11.02;2.30;;;;;;;;;;4928153;28;20430;-65
2022/04/10 02:45:47;;;;;;;11.25;2.22;;;;;;;;;;4933784;29;20565;-65
2022/04/10 02:48:13;;;;;;;7.15;2.05;;;;;;;;;;4935561;28;20424;-64
2022/04/10 02:50:40;;;;;;;7.75;2.22;;;;;;;;;;4932919;28;20424;-63
2022/04/10 02:53:07;;;;;;;10.43;2.40;;;;;;;;;;4929857;28;20526;-64
2022/04/10 02:55:34;;;;;;;9.48;2.08;;;;;;;;;;4936242;28;20427;-64
2022/04/10 02:58:00;;;;;;;8.27;1.95;;;;;;;;;;4934348;28;20472;-64
2022/04/10 03:00:26;;;;;;;10.35;2.45;;;;;;;;;;4935088;28;20502;-64
2022/04/10 03:02:52;;;;;;;11.35;2.47;;;;;;;;;;4931941;28;20432;-64
2022/04/10 03:05:18;;;;;;;10.52;2.38;;;;;;;;;;4934895;28;20519;-64
2022/04/10 03:07:44;;;;;;;7.93;2.20;;;;;;;;;;4932250;28;20440;-63
2022/04/10 03:10:11;;;;;;;11.45;2.33;;;;;;;;;;4929930;28;20424;-64
2022/04/10 03:12:37;;;;;;;8.80;2.10;;;;;;;;;;4931016;28;20440;-63
2022/04/10 03:15:03;;;;;;;8.50;2.60;;;;;;;;;;4935724;28;20460;-64
2022/04/10 03:17:29;;;;;;;12.73;2.90;;;;;;;;;;4938870;28;20442;-64
2022/04/10 03:19:55;;;;;;;14.30;3.17;;;;;;;;;;4933716;28;20490;-64
2022/04/10 03:22:22;;;;;;;10.75;2.72;;;;;;;;;;4938321;28;20428;-64
2022/04/10 03:24:48;;;;;;;14.75;2.80;;;;;;;;;;4935302;28;20878;-64
2022/04/10 03:27:14;;;;;;;11.52;2.35;;;;;;;;;;4938622;28;20432;-64
2022/04/10 03:29:40;;;;;;;7.83;1.83;;;;;;;;;;4927890;28;20855;-64
2022/04/10 03:32:06;;;;;;;6.50;1.58;;;;;;;;;;4935040;28;20503;-63
2022/04/10 03:34:32;;;;;;;6.82;1.50;;;;;;;;;;4937050;28;20507;-64
2022/04/10 03:36:58;;;;;;;5.30;1.30;;;;;;;;;;4941137;28;20428;-63
2022/04/10 03:39:24;;;;;;;4.47;1.20;;;;;;;;;;4935813;28;20503;-64
2022/04/10 03:41:50;;;;;;;3.97;1.30;;;;;;;;;;4936188;28;20459;-65
2022/04/10 03:44:16;;;;;;;4.50;1.50;;;;;;;;;;4936906;28;20439;-64
2022/04/10 03:46:43;;;;;;;6.00;1.60;;;;;;;;;;4934123;28;20447;-64
2022/04/10 03:49:09;;;;;;;3.42;1.30;;;;;;;;;;4935209;28;20458;-64
2022/04/10 03:51:35;;;;;;;5.40;1.27;;;;;;;;;;4936732;28;20440;-64
2022/04/10 03:54:01;;;;;;;4.00;1.23;;;;;;;;;;4934851;28;20466;-64
2022/04/10 03:56:27;;;;;;;5.10;1.58;;;;;;;;;;4936959;28;20425;-65
2022/04/10 03:58:53;;;;;;;3.23;1.20;;;;;;;;;;4935644;28;20475;-66
2022/04/10 04:01:19;;;;;;;4.97;1.60;;;;;;;;;;4936358;28;20455;-65
2022/04/10 04:03:45;;;;;;;3.75;1.30;;;;;;;;;;4937811;28;20431;-65
2022/04/10 04:06:11;;;;;;;5.32;1.70;;;;;;;;;;4949515;28;20440;-65
2022/04/10 04:08:40;;;;;;;4.18;1.50;;;;;;;;;;4934377;28;20467;-64
2022/04/10 04:11:06;;;;;;;4.93;1.60;;;;;;;;;;4936386;28;20436;-64
2022/04/10 04:13:33;;;;;;;7.60;1.48;;;;;;;;;;4935009;28;20439;-64
2022/04/10 04:15:59;;;;;;;6.22;1.45;;;;;;;;;;4937333;28;20519;-64
2022/04/10 04:18:25;;;;;;;4.07;1.35;;;;;;;;;;4934894;28;20451;-64
2022/04/10 04:20:51;;;;;;;4.35;1.50;;;;;;;;;;4934884;28;21491;-64
2022/04/10 04:23:19;;;;;;;5.57;1.92;;;;;;;;;;4935830;28;20447;-64
2022/04/10 04:25:45;;;;;;;7.80;1.80;;;;;;;;;;4936471;28;20427;-64
2022/04/10 04:28:11;;;;;;;7.20;1.60;;;;;;;;;;4936259;28;20435;-64
2022/04/10 04:30:37;;;;;;;8.60;2.20;;;;;;;;;;4936976;28;20427;-64
2022/04/10 04:33:04;;;;;;;6.60;2.20;;;;;;;;;;4915479;28;20444;-64
2022/04/10 04:35:30;;;;;;;6.45;1.75;;;;;;;;;;4937166;28;20435;-64
2022/04/10 04:37:57;;;;;;;9.73;2.20;;;;;;;;;;4935174;28;20478;-63
2022/04/10 04:40:24;;;;;;;8.75;2.20;;;;;;;;;;4934627;28;21039;-66
2022/04/10 04:42:50;;;;;;;7.50;2.05;;;;;;;;;;4934239;28;20454;-64
2022/04/10 04:45:18;;;;;;;12.18;2.85;;;;;;;;;;4934266;28;20423;-64
2022/04/10 04:47:44;;;;;;;8.73;2.10;;;;;;;;;;4936447;28;20435;-64
2022/04/10 04:50:10;;;;;;;8.15;2.20;;;;;;;;;;4923966;28;20456;-65
2022/04/10 04:52:36;;;;;;;5.88;2.10;;;;;;;;;;4934479;28;20681;-65
2022/04/10 04:55:02;;;;;;;7.28;2.10;;;;;;;;;;4926844;28;20489;-65
2022/04/10 04:57:28;;;;;;;8.98;2.13;;;;;;;;;;4936931;29;20431;-64
2022/04/10 04:59:54;;;;;;;8.17;2.00;;;;;;;;;;4933697;28;20442;-64
2022/04/10 05:02:20;;;;;;;6.13;2.05;;;;;;;;;;4935594;28;20444;-64
2022/04/10 05:04:46;;;;;;;10.00;2.03;;;;;;;;;;4934138;29;20499;-64
2022/04/10 05:07:12;;;;;;;7.95;3.03;;;;;;;;;;4927074;28;20420;-63
2022/04/10 05:09:38;;;;;;;12.32;3.17;;;;;;;;;;4931856;28;20424;-64
2022/04/10 05:12:05;;;;;;;7.10;2.05;;;;;;;;;;4922124;29;20473;-63
2022/04/10 05:14:32;;;;;;;6.82;2.40;;;;;;;;;;4908466;29;20431;-64
2022/04/10 05:16:58;;;;;;;9.60;2.42;;;;;;;;;;4926721;28;20430;-64
2022/04/10 05:19:25;;;;;;;6.43;2.28;;;;;;;;;;4930451;29;20526;-64
2022/04/10 05:21:51;;;;;;;6.78;2.15;;;;;;;;;;4935712;28;20423;-64
2022/04/10 05:24:17;;;;;;;10.70;2.95;;;;;;;;;;4934007;28;20458;-64
2022/04/10 05:26:43;;;;;;;6.75;2.50;;;;;;;;;;4935131;29;20432;-64
2022/04/10 05:29:09;;;;;;;8.75;2.75;;;;;;;;;;4934851;28;20918;-64
2022/04/10 05:31:35;;;;;;;9.27;2.40;;;;;;;;;;4934669;28;20493;-63
2022/04/10 05:34:02;;;;;;;8.63;2.30;;;;;;;;;;4921241;28;20418;-62
2022/04/10 05:36:28;;;;;;;10.00;2.40;;;;;;;;;;4934502;28;20422;-63
2022/04/10 05:38:54;;;;;;;11.57;2.40;;;;;;;;;;4933628;28;20470;-64
2022/04/10 05:41:20;;;;;;;9.20;2.22;;;;;;;;;;4936123;28;20427;-64
2022/04/10 05:43:47;;;;;;;6.20;2.00;;;;;;;;;;4942608;28;20431;-65
2022/04/10 05:46:13;;;;;;;5.65;1.70;;;;;;;;;;4935555;28;20423;-64
2022/04/10 05:48:39;;;;;;;6.22;1.75;;;;;;;;;;4932253;28;20539;-64
2022/04/10 05:51:06;;;;;;;5.38;1.80;;;;;;;;;;4933912;28;20475;-64
2022/04/10 05:53:32;;;;;;;7.45;2.10;;;;;;;;;;4933884;28;20420;-64
2022/04/10 05:55:59;;;;;;;7.75;2.38;;;;;;;;;;4927267;29;20444;-64
2022/04/10 05:58:25;;;;;;;10.30;2.25;;;;;;;;;;4932780;28;20439;-64
2022/04/10 06:00:52;;;;;;;9.88;2.88;;;;;;;;;;4935756;28;20439;-64
2022/04/10 06:03:18;;;;;;;8.48;2.80;;;;;;;;;;4929914;28;20423;-64
2022/04/10 06:05:45;;;;;;;9.45;2.47;;;;;;;;;;4932507;28;21274;-65
2022/04/10 06:08:11;;;;;;;9.65;2.55;;;;;;;;;;4932817;28;20529;-65
2022/04/10 06:10:37;;;;;;;9.95;2.70;;;;;;;;;;4935288;28;20522;-65
2022/04/10 06:13:10;;;;;;;9.25;2.47;;;;;;;;;;4932042;28;20439;-64
2022/04/10 06:15:36;;;;;;;9.93;2.42;;;;;;;;;;4933028;29;20459;-64
2022/04/10 06:18:03;;;;;;;11.98;2.60;;;;;;;;;;4927042;28;20462;-65
2022/04/10 06:20:29;;;;;;;6.53;2.28;;;;;;;;;;4933585;29;20448;-65
2022/04/10 06:22:55;;;;;;;9.70;2.22;;;;;;;;;;4933810;28;20781;-64
2022/04/10 06:25:21;;;;;;;7.80;2.47;;;;;;;;;;4930608;28;20428;-64
2022/04/10 06:27:47;;;;;;;10.10;2.40;;;;;;;;;;4927858;28;20428;-64
2022/04/10 06:30:13;;;;;;;7.28;2.17;;;;;;;;;;4933109;28;20427;-64
2022/04/10 06:32:39;;;;;;;8.43;2.17;;;;;;;;;;4932814;28;20451;-64
2022/04/10 06:35:06;;;;;;;8.37;2.20;;;;;;;;;;4930671;28;21109;-64
2022/04/10 06:37:32;;;;;;;8.53;2.00;;;;;;;;;;4930708;29;20441;-66
2022/04/10 06:39:58;;;;;;;7.35;1.92;;;5.00;99.90;;;;;;4932610;28;20474;-66
2022/04/10 06:42:24;;;;;;;7.10;2.00;;;;;;;;;;4935038;28;20447;-65
2022/04/10 06:44:50;;;;;;;4.88;1.73;;;;;;;;;;4930541;28;20431;-64
2022/04/10 06:47:16;;;;;;;5.60;1.90;;;;;;;;;;4931154;28;20435;-66
2022/04/10 06:49:42;;;;;;;6.05;2.05;;;;;;;;;;4931102;29;20515;-64
2022/04/10 06:52:08;;;;;;;7.55;1.92;;;;;;;;;;4922923;28;20429;-64
2022/04/10 06:54:34;;;;;;;5.97;2.00;;;;;;;;;;4931277;28;20439;-63
2022/04/10 06:57:00;;;;;;;8.55;1.90;;;;;;;;;;4931892;28;20424;-64
2022/04/10 06:59:27;;;;;;;8.55;1.95;;;;;;;;;;4918768;29;21026;-64
2022/04/10 07:01:53;;;;;;;8.07;2.17;;;;;;;;;;4931835;28;20463;-64
2022/04/10 07:04:19;;;;;;;10.27;2.63;;;;;;;;;;4934343;28;20447;-64
2022/04/10 07:06:46;;;;;;;8.95;2.30;;;;;;;;;;4930974;28;20502;-64
2022/04/10 07:09:14;;;;;;;6.97;2.00;;;;;;;;;;4924686;29;20444;-64
2022/04/10 07:11:40;;;;;;;8.43;2.03;;;;;;;;;;4864649;28;1868406;-64
2022/04/10 07:14:07;;;;;;;7.75;2.25;;;;;;;;;;4930992;28;20528;-64
2022/04/10 07:16:33;;;;;;;7.53;2.20;;;;;;;;;;4930738;28;20491;-64
2022/04/10 07:18:59;;;;;;;7.55;2.20;;;;;;;;;;4932075;28;20445;-64
2022/04/10 07:24:10;;;;;;;7.63;2.20;;;;;;;;;;4922105;28;20452;-64
2022/04/10 07:26:36;;;;;;;8.35;2.13;;;;;;;;;;4933667;28;20427;-65
2022/04/10 07:29:03;;;;;;;11.07;2.35;;;;;;;;;;4932433;28;20454;-64
2022/04/10 07:31:29;;;;;;;9.05;2.00;;;;;;;;;;4924135;28;20522;-65
2022/04/10 07:33:55;;;;;;;10.60;2.90;;;;;;;;;;4933623;28;20424;-64
2022/04/10 07:36:21;;;;;;;10.30;2.33;;;;;;;;;;4932105;28;20443;-64
2022/04/10 07:38:47;;;;;;;10.95;2.70;;;;;;;;;;4934714;28;20442;-64
2022/04/10 07:41:13;;;;;;;9.93;2.28;;;;;;;;;;4930937;28;20517;-64
2022/04/10 07:43:39;;;;;;;13.23;2.63;;;;;;;;;;4934669;28;20428;-64
2022/04/10 07:48:50;;;;;;;8.40;2.50;;;;;;;;;;4930625;28;20934;-65
2022/04/10 07:51:16;;;;;;;9.85;2.67;;;;;;;;;;4928083;28;20474;-63
2022/04/10 07:53:42;;;;;;;10.30;2.35;;;;;;;;;;4932336;28;20427;-64
2022/04/10 07:56:09;;;;;;;12.60;3.17;;;;;;;;;;4934171;28;20467;-64
2022/04/10 07:58:36;;;;;;;11.13;2.38;;;;;;;;;;4921173;29;20439;-64
2022/04/10 08:01:03;;;;;;;10.95;2.40;;;;;;;;;;4933778;28;20427;-64
2022/04/10 08:03:29;;;;;;;13.30;3.00;;;;;;;;;;4935819;28;20471;-64
2022/04/10 08:05:56;;;;;;;8.98;2.70;;;;;;;;;;4937057;28;20497;-64
2022/04/10 08:08:22;;;;;;;12.95;2.72;;;;;;;;;;4935287;28;20427;-64
2022/04/10 08:10:48;;;;;;;11.45;2.70;;;;;;;;;;4933550;28;20474;-64
2022/04/10 08:13:15;;;;;;;11.70;2.92;;;;;;;;;;4931322;28;20927;-64
2022/04/10 08:15:41;;;;;;;10.13;2.40;;;;;;;;;;4935840;28;20458;-68
2022/04/10 08:18:08;;;;;;;8.97;2.17;;;;;;;;;;4931478;28;20575;-67
2022/04/10 08:20:35;;;;;;;10.60;2.10;;;;;;;;;;4934286;28;20446;-66
2022/04/10 08:23:01;;;;;;;11.68;2.45;;;;;;;;;;4930036;28;20446;-67
2022/04/10 08:25:27;;;;;;;12.30;2.67;;;;;;;;;;4930570;28;20435;-66
2022/04/10 08:27:53;;;;;;;12.48;2.50;;;;;;;;;;4936038;28;20444;-66
2022/04/10 08:30:20;;;;;;;9.18;2.80;;;;;;;;;;4937147;28;20444;-66
2022/04/10 08:32:46;;;;;;;8.05;2.20;;;;;;;;;;4928910;28;20432;-67
2022/04/10 08:41:38;;;;;;;10.05;3.08;;;;;;;;;;5197316;22;20946;-78
2022/04/10 08:44:05;;;;;;;8.90;2.78;;;;;;;;;;5390925;23;21102;-76
2022/04/10 08:46:55;;;;;;;;;;;;;;;;;;;;;
2022/04/10 08:52:29;;;;;;;13.32;4.13;;;;;;;;;;5004539;28;20434;-77
2022/04/10 08:54:55;;;;;;;9.70;2.60;;;;;;;;;;4950550;28;20438;-77
2022/04/10 08:57:21;;;;;;;10.23;3.90;;;;;;;;;;4999719;28;20429;-78
2022/04/10 08:59:47;;;;;;;10.40;5.80;;;;;;;;;;4999235;28;20513;-78
2022/04/10 09:02:14;;;;;;;9.80;2.37;;;;;;;;;;4997129;28;20510;-78
2022/04/10 09:04:40;;;;;;;15.98;6.25;;;;;;;;;;4999882;28;20941;-78
2022/04/10 09:07:13;;;;;;;9.82;2.58;;;;;;;;;;4995403;28;20878;-79
2022/04/10 09:09:45;;;;;;;8.38;1.90;;;;;;;;;;5009307;28;20437;-78
2022/04/10 09:12:14;;;;;;;10.73;2.10;;;;;;;;;;4997359;28;20430;-78
2022/04/10 09:14:41;;;;;;;10.15;2.22;;;;;;;;;;5012478;28;20433;-78
2022/04/10 09:17:10;;;;;;;9.15;2.00;;;;;;;;;;4985969;28;20511;-78
2022/04/10 09:19:41;;;;;;;11.40;2.77;;;8.40;99.90;;;;;;5012569;28;20444;-79
2022/04/10 09:22:21;;;;;;;13.40;3.35;;;;;;;;;;5010648;28;20426;-77
2022/04/10 09:25:07;;;;;;;10.10;2.47;;;;;;;;;;5011836;28;20432;-79
2022/04/10 09:27:34;;;;;;;9.45;2.20;;;;;;;;;;4993389;28;20505;-77
2022/04/10 09:30:03;;;;;;;7.38;2.00;;;;;;;;;;4997924;28;20446;-78
2022/04/10 09:32:45;;;;;;;9.32;2.42;;;;;;;;;;4998945;28;20437;-78
2022/04/10 09:35:12;;;;;;;9.15;2.92;;;;;;;;;;4994991;28;20620;-78
2022/04/10 09:37:43;;;;;;;9.05;2.20;;;8.00;99.90;;;;;;4988585;28;20507;-78
2022/04/10 09:40:28;;;;;;;8.68;2.45;;;;;;;;;;5016351;28;20440;-77
2022/04/10 09:43:05;;;;;;;10.88;3.67;;;;;;;;;;5012117;28;20436;-79
2022/04/10 09:45:31;;;;;;;15.25;4.43;;;;;;;;;;5015265;28;20928;-77
2022/04/10 09:47:58;;;;;;;8.95;2.95;;;;;;;;;;4994998;28;20426;-77
2022/04/10 09:50:33;;;;;;;8.10;2.05;;;;;;;;;;5015271;28;20442;-76
2022/04/10 09:53:06;;;;;;;9.47;2.10;;;;;;;;;;5006494;28;20512;-76
2022/04/10 09:55:37;;;;;;;8.98;2.03;;;;;;;;;;4992302;28;20437;-76
2022/04/10 09:58:06;;;;;;;10.93;4.47;;;;;;;;;;4997694;28;20969;-77
2022/04/10 10:00:33;;;;;;;6.22;1.92;;;;;;;;;;4995805;28;20486;-76
2022/04/10 10:03:01;;;;;;;12.07;2.30;;;;;;;;;;4991677;28;20433;-75
2022/04/10 10:05:27;;;;;;;7.73;2.10;;;;;;;;;;4907497;28;20436;-77
2022/04/10 10:07:53;;;;;;;8.55;2.08;;;;;;;;;;4979828;28;20439;-76
2022/04/10 10:10:20;;;;;;;8.17;1.90;;;;;;;;;;4984995;28;20614;-79
2022/04/10 10:12:46;;;;;;;9.05;2.00;;;;;;;;;;5012237;28;20925;-76
2022/04/10 10:15:13;;;;;;;6.70;1.77;;;;;;;;;;5010326;28;20452;-76
2022/04/10 10:17:39;;;;;;;9.10;2.10;;;;;;;;;;4995488;28;20496;-77
2022/04/10 10:20:06;;;;;;;13.80;2.20;;;;;;;;;;5006815;28;20434;-76
2022/04/10 10:22:32;;;;;;;6.95;2.45;;;;;;;;;;5009822;28;20422;-76
2022/04/10 10:25:07;;;;;;;23.77;11.47;;;9.20;99.90;;;;;;5005725;28;20491;-76
2022/04/10 10:27:48;;;;;;;7.35;1.92;;;;;;;;;;4991074;28;20773;-76
2022/04/10 10:30:25;;;;;;;8.30;2.20;;;;;;;;;;4946981;28;20540;-76
2022/04/10 10:32:55;;;;;;;6.30;2.22;;;;;;;;;;4990008;28;20434;-76
2022/04/10 10:35:33;;;;;;;12.48;4.53;;;8.80;99.90;;;;;;5013304;28;20495;-75
2022/04/10 10:38:02;;;;;;;7.78;2.20;;;;;;;;;;4992652;28;20440;-75
2022/04/10 10:40:29;;;;;;;7.47;2.30;;;;;;;;;;5010894;28;20434;-75
2022/04/10 10:43:00;;;;;;;9.02;2.00;;;;;;;;;;5005978;28;20438;-77
2022/04/10 10:45:37;;;;;;;8.90;2.70;;;7.70;99.90;;;;;;4935485;28;20449;-77
2022/04/10 10:48:33;;;;;;;8.75;2.47;;;7.50;99.90;;;;;;5000162;28;20812;-77
2022/04/10 10:51:03;;;;;;;11.63;2.88;;;;;;;;;;5004894;28;20852;-77
2022/04/10 10:53:45;;;;;;;10.00;2.65;;;;;;;;;;5007960;28;20430;-77
2022/04/10 10:56:29;;;;;;;9.50;2.60;;;;;;;;;;4987116;28;20482;-76
2022/04/10 10:59:16;;;;;;;17.27;3.00;;;8.40;99.90;;;;;;4933668;28;20768;-75
2022/04/10 11:02:01;;;;;;;9.77;2.43;;;;;;;;;;4990417;28;20436;-76
2022/04/10 11:04:30;;;;;;;10.85;2.20;;;;;;;;;;5007663;28;20438;-75
2022/04/10 11:07:10;;;;;;;10.07;2.63;;;;;;;;;;5012837;28;20433;-76
2022/04/10 11:09:46;;;;;;;7.20;1.85;;;;;;;;;;5004635;28;20750;-75
2022/04/10 11:12:13;;;;;;;7.13;1.90;;;;;;;;;;4988204;28;20453;-76
2022/04/10 11:14:41;;;;;;;7.35;2.33;;;8.60;99.90;;;;;;5010797;28;20532;-76
2022/04/10 11:17:17;;;;;;;10.40;3.90;;;;;;;;;;4994542;28;20438;-77
2022/04/10 11:19:54;;;;;;;7.95;1.90;;;;;;;;;;5001088;28;20465;-77
2022/04/10 11:22:25;;;;;;;7.60;2.00;;;9.40;99.90;;;;;;4985480;28;20950;-76
2022/04/10 11:24:57;;;;;;;7.35;1.73;;;;;;;;;;4998637;28;20439;-76
2022/04/10 11:27:53;;;;;;;8.95;1.95;;;9.70;99.90;;;;;;5001303;28;20426;-77
2022/04/10 11:30:24;;;;;;;7.90;1.67;;;;;;;;;;5003947;28;20773;-76
2022/04/10 11:32:54;;;;;;;7.82;1.80;;;;;;;;;;5006134;28;20442;-78
2022/04/10 11:35:34;;;;;;;6.35;1.70;;;;;;;;;;4973179;28;20936;-78
2022/04/10 11:38:01;;;;;;;6.85;1.70;;;;;;;;;;5009841;28;20435;-77
2022/04/10 11:40:31;;;;;;;6.22;1.70;;;;;;;;;;5005526;28;20429;-77
2022/04/10 11:42:58;;;;;;;6.75;1.98;;;;;;;;;;5007745;28;20520;-78
2022/04/10 11:45:26;;;;;;;7.38;1.88;;;;;;;;;;4996414;28;20513;-77
2022/04/10 11:47:52;;;;;;;4.10;1.30;;;;;;;;;;5009129;28;20491;-78
2022/04/10 11:50:18;;;;;;;6.65;1.58;;;;;;;;;;5010080;28;21007;-78
2022/04/10 11:52:59;;;;;;;7.35;2.05;;;10.10;99.90;;;;;;5009184;28;20441;-78
2022/04/10 11:55:30;;;;;;;7.65;2.10;;;;;;;;;;4943049;28;20418;-78
2022/04/10 11:57:56;;;;;;;6.47;1.70;;;;;;;;;;5002180;28;20518;-78
2022/04/10 12:00:22;;;;;;;6.68;2.10;;;;;;;;;;5005923;28;20487;-79
2022/04/10 12:02:53;;;;;;;5.93;1.70;;;10.50;99.90;;;;;;4995758;28;20422;-78
2022/04/10 12:05:27;;;;;;;6.90;2.00;;;10.40;99.90;;;;;;5014388;28;20441;-78
2022/04/10 12:08:03;;;;;;;7.60;1.87;;;10.70;99.90;;;;;;5015327;28;20511;-78
2022/04/10 12:10:30;;;;;;;6.63;1.80;;;;;;;;;;5012589;28;20427;-78
2022/04/10 12:12:56;;;;;;;7.45;2.40;;;;;;;;;;4998671;28;20846;-78
2022/04/10 12:15:22;;;;;;;7.03;1.60;;;;;;;;;;4957480;28;20432;-78
2022/04/10 12:17:49;;;;;;;6.45;1.85;;;;;;;;;;5013317;28;20486;-78
2022/04/10 12:20:15;;;;;;;7.70;2.05;;;;;;;;;;4985575;28;20577;-78
2022/04/10 12:22:42;;;;;;;6.13;1.95;;;;;;;;;;4946372;28;20469;-79
2022/04/10 12:25:09;;;;;;;7.70;1.80;;;;;;;;;;4948960;28;20540;-78
2022/04/10 12:27:36;;;;;;;7.80;1.80;;;;;;;;;;5016167;28;20434;-78
2022/04/10 12:30:08;;;;;;;6.28;1.65;;;10.20;99.90;;;;;;5013144;28;20824;-77
2022/04/10 12:32:35;;;;;;;5.90;1.80;;;;;;;;;;4929061;28;20511;-76
2022/04/10 12:35:08;;;;;;;9.48;2.50;;;;;;;;;;4944561;28;20431;-74
2022/04/10 12:37:34;;;;;;;7.18;2.10;;;;;;;;;;5013938;28;20441;-74
2022/04/10 12:40:02;;;;;;;10.10;2.33;;;;;;;;;;5015679;28;20446;-74
2022/04/10 12:42:37;;;;;;;6.13;1.63;;;9.90;99.90;;;;;;5003956;28;20448;-74
2022/04/10 12:45:06;;;;;;;7.65;1.98;;;;;;;;;;5015483;28;20484;-74
2022/04/10 12:47:46;;;;;;;5.90;1.42;;;10.60;99.90;;;;;;4982490;28;20430;-73
2022/04/10 12:50:17;;;;;;;6.20;1.50;;;;;;;;;;4959534;28;20454;-74
2022/04/10 12:52:44;;;;;;;6.25;1.77;;;;;;;;;;5026774;28;20479;-73
2022/04/10 12:55:17;;;;;;;6.03;1.40;;;;;;;;;;5009781;28;20867;-74
2022/04/10 12:57:51;;;;;;;6.20;1.60;;;;;;;;;;5014082;28;20492;-73
2022/04/10 13:00:44;;;;;;;7.10;1.70;;;11.00;99.90;;;;;;5005887;28;20464;-75
2022/04/10 13:03:19;;;;;;;4.82;1.55;;;;;;;;;;4990065;28;20531;-72
2022/04/10 13:06:02;;;;;;;5.57;1.60;;;11.00;99.90;;;;;;5010818;28;22173;-73
2022/04/10 13:08:29;;;;;;;8.00;1.90;;;;;;;;;;5008982;28;20523;-73
2022/04/10 13:10:57;;;;;;;7.35;1.70;;;;;;;;;;5013556;28;20437;-72
2022/04/10 13:13:24;;;;;;;5.93;1.35;;;;;;;;;;4941325;28;20780;-72
2022/04/10 13:15:50;;;;;;;5.47;1.30;;;;;;;;;;5013111;28;20793;-72
2022/04/10 13:18:26;;;;;;;5.30;1.30;;;;;;;;;;5011611;28;20933;-73
2022/04/10 13:20:53;;;;;;;4.47;1.25;;;;;;;;;;4995734;28;20520;-74
2022/04/10 13:23:19;;;;;;;5.22;1.52;;;;;;;;;;4994125;28;20441;-74
2022/04/10 13:25:45;;;;;;;7.63;1.70;;;;;;;;;;4945955;28;20881;-74
2022/04/10 13:28:12;;;;;;;9.17;1.83;;;;;;;;;;5008337;28;20433;-75
2022/04/10 13:30:39;;;;;;;3.92;1.42;;;;;;;;;;5004769;28;20828;-75
2022/04/10 13:33:05;;;;;;;6.53;1.50;;;;;;;;;;5009665;28;20544;-74
2022/04/10 13:35:31;;;;;;;6.55;1.63;;;;;;;;;;4945611;28;20429;-75
2022/04/10 13:37:57;;;;;;;6.30;1.50;;;;;;;;;;4985153;28;20420;-75
2022/04/10 13:40:25;;;;;;;6.00;1.38;;;;;;;;;;4963237;28;20488;-75
2022/04/10 13:42:51;;;;;;;4.18;1.50;;;;;;;;;;4946757;28;20430;-74
2022/04/10 13:45:17;;;;;;;6.00;1.50;;;;;;;;;;5008297;28;20990;-74
2022/04/10 13:47:43;;;;;;;5.40;1.40;;;;;;;;;;4949052;28;20450;-74
2022/04/10 13:50:10;;;;;;;6.20;1.67;;;;;;;;;;5008147;28;20676;-74
2022/04/10 13:52:37;;;;;;;5.00;1.67;;;;;;;;;;4946796;28;20425;-74
2022/04/10 13:55:04;;;;;;;7.00;1.23;;;;;;;;;;5022327;28;20909;-75
2022/04/10 13:57:30;;;;;;;7.57;1.88;;;;;;;;;;5008721;28;20509;-74
2022/04/10 13:59:56;;;;;;;5.20;1.67;;;;;;;;;;4946006;28;21028;-74
2022/04/10 14:02:23;;;;;;;13.43;2.40;;;;;;;;;;4945133;28;20429;-74
2022/04/10 14:04:49;;;;;;;6.72;1.70;;;;;;;;;;5011934;28;20494;-73
2022/04/10 14:07:15;;;;;;;6.43;1.60;;;;;;;;;;4984006;28;20467;-73
2022/04/10 14:09:41;;;;;;;7.03;1.50;;;;;;;;;;4948855;28;20500;-73
2022/04/10 14:12:07;;;;;;;6.78;1.50;;;;;;;;;;4945422;28;20575;-73
2022/04/10 14:14:35;;;;;;;6.20;1.50;;;;;;;;;;4989507;28;21213;-74
2022/04/10 14:17:01;;;;;;;5.78;1.42;;;;;;;;;;4946267;28;20521;-74
2022/04/10 14:19:27;;;;;;;3.67;1.30;;;;;;;;;;4938082;28;20537;-75
2022/04/10 14:21:54;;;;;;;2.58;0.90;;;;;;;;;;4942564;28;20440;-74
2022/04/10 14:24:20;;;;;;;6.43;1.45;;;;;;;;;;4943668;28;20432;-74
2022/04/10 14:26:46;;;;;;;5.10;1.10;;;;;;;;;;4945704;28;20446;-73
2022/04/10 14:29:13;;;;;;;6.28;1.40;;;;;;;;;;5004342;28;20456;-74
2022/04/10 14:31:40;;;;;;;3.58;1.25;;;;;;;;;;4983702;28;21012;-74
2022/04/10 14:34:06;;;;;;;6.57;1.40;;;;;;;;;;4941018;28;20710;-74
2022/04/10 14:36:33;;;;;;;5.72;1.40;;;;;;;;;;4943838;28;20464;-73
2022/04/10 14:38:59;;;;;;;4.32;1.35;;;;;;;;;;5005249;28;20434;-73
2022/04/10 14:41:25;;;;;;;6.47;1.30;;;;;;;;;;5027891;28;20426;-73
2022/04/10 14:43:51;;;;;;;5.15;1.55;;;;;;;;;;4944539;28;20453;-81
2022/04/10 14:46:18;;;;;;;4.45;1.10;;;;;;;;;;5003555;28;20825;-82
2022/04/10 14:48:45;;;;;;;6.10;1.37;;;;;;;;;;5015304;28;20619;-83
2022/04/10 14:51:11;;;;;;;5.55;1.38;;;;;;;;;;5000629;28;20434;-83